Terminal Aerodrome Forecast
Issued by NWS

Home | Current Version | Previous Version | Text Only | Print | Product List | Glossary On
Versions: 1 2 3 4 5 6 7 8 9 10 11 12 13 14 15 16
000
FTUS44 KBMX 190300 AAA
TAFEET
TAF AMD
KEET 190308Z 1903/1924 02007KT P6SM VCSH SCT020 OVC080
     FM190600 02005KT P6SM OVC015
     FM191300 36010G18KT P6SM SCT020 OVC080=

USA.gov is the U.S. government's official web portal to all federal, state and local government web resources and services.